sensor_id;sensor_type;location;lat;lon;timestamp;P1;durP1;ratioP1;P2;durP2;ratioP2
14858;SDS011;7521;51.700;6.874;2023-10-09T00:02:21;30.23;;;15.80;;
14858;SDS011;7521;51.700;6.874;2023-10-09T00:05:28;38.60;;;16.23;;
14858;SDS011;7521;51.700;6.874;2023-10-09T00:08:45;32.43;;;16.87;;
14858;SDS011;7521;51.700;6.874;2023-10-09T00:11:53;28.40;;;15.40;;
14858;SDS011;7521;51.700;6.874;2023-10-09T00:15:02;27.37;;;16.60;;
14858;SDS011;7521;51.700;6.874;2023-10-09T00:18:16;28.37;;;16.23;;
14858;SDS011;7521;51.700;6.874;2023-10-09T00:21:26;29.93;;;17.20;;
14858;SDS011;7521;51.700;6.874;2023-10-09T00:24:39;30.83;;;17.00;;
14858;SDS011;7521;51.700;6.874;2023-10-09T00:27:51;29.77;;;18.17;;
14858;SDS011;7521;51.700;6.874;2023-10-09T00:30:57;27.67;;;17.10;;
14858;SDS011;7521;51.700;6.874;2023-10-09T00:34:02;30.77;;;17.45;;
14858;SDS011;7521;51.700;6.874;2023-10-09T00:37:10;32.63;;;17.03;;
14858;SDS011;7521;51.700;6.874;2023-10-09T00:40:21;30.60;;;18.50;;
14858;SDS011;7521;51.700;6.874;2023-10-09T00:43:32;28.90;;;16.93;;
14858;SDS011;7521;51.700;6.874;2023-10-09T00:46:40;28.70;;;16.17;;
14858;SDS011;7521;51.700;6.874;2023-10-09T00:49:57;28.63;;;17.13;;
14858;SDS011;7521;51.700;6.874;2023-10-09T00:53:06;33.13;;;19.00;;
14858;SDS011;7521;51.700;6.874;2023-10-09T00:56:17;27.50;;;17.10;;
14858;SDS011;7521;51.700;6.874;2023-10-09T00:59:33;32.80;;;19.77;;
14858;SDS011;7521;51.700;6.874;2023-10-09T01:02:39;33.30;;;18.57;;
14858;SDS011;7521;51.700;6.874;2023-10-09T01:05:54;35.07;;;19.33;;
14858;SDS011;7521;51.700;6.874;2023-10-09T01:09:03;32.47;;;17.60;;
14858;SDS011;7521;51.700;6.874;2023-10-09T01:12:14;34.40;;;19.00;;
14858;SDS011;7521;51.700;6.874;2023-10-09T01:15:22;28.30;;;18.33;;
14858;SDS011;7521;51.700;6.874;2023-10-09T01:18:49;33.97;;;18.43;;
14858;SDS011;7521;51.700;6.874;2023-10-09T01:21:55;29.23;;;17.57;;
14858;SDS011;7521;51.700;6.874;2023-10-09T01:25:03;31.47;;;18.43;;
14858;SDS011;7521;51.700;6.874;2023-10-09T01:28:11;29.67;;;19.40;;
14858;SDS011;7521;51.700;6.874;2023-10-09T01:31:20;33.80;;;17.93;;
14858;SDS011;7521;51.700;6.874;2023-10-09T01:34:27;29.90;;;17.60;;
14858;SDS011;7521;51.700;6.874;2023-10-09T01:37:54;33.40;;;17.63;;
14858;SDS011;7521;51.700;6.874;2023-10-09T01:41:01;27.10;;;16.97;;
14858;SDS011;7521;51.700;6.874;2023-10-09T01:44:12;34.97;;;20.00;;
14858;SDS011;7521;51.700;6.874;2023-10-09T01:47:20;34.73;;;19.17;;
14858;SDS011;7521;51.700;6.874;2023-10-09T01:50:26;31.00;;;18.63;;
14858;SDS011;7521;51.700;6.874;2023-10-09T01:53:40;32.00;;;19.73;;
14858;SDS011;7521;51.700;6.874;2023-10-09T01:56:46;33.33;;;19.37;;
14858;SDS011;7521;51.700;6.874;2023-10-09T01:59:52;31.70;;;19.00;;
14858;SDS011;7521;51.700;6.874;2023-10-09T02:03:00;33.27;;;18.83;;
14858;SDS011;7521;51.700;6.874;2023-10-09T02:06:09;32.10;;;19.83;;
14858;SDS011;7521;51.700;6.874;2023-10-09T02:09:31;32.87;;;19.53;;
14858;SDS011;7521;51.700;6.874;2023-10-09T02:12:37;31.43;;;19.03;;
14858;SDS011;7521;51.700;6.874;2023-10-09T02:15:42;31.60;;;19.40;;
14858;SDS011;7521;51.700;6.874;2023-10-09T02:18:48;31.83;;;19.53;;
14858;SDS011;7521;51.700;6.874;2023-10-09T02:22:01;30.30;;;18.90;;
14858;SDS011;7521;51.700;6.874;2023-10-09T02:25:18;30.17;;;19.63;;
14858;SDS011;7521;51.700;6.874;2023-10-09T02:28:26;29.10;;;19.33;;
14858;SDS011;7521;51.700;6.874;2023-10-09T02:31:37;34.37;;;19.00;;
14858;SDS011;7521;51.700;6.874;2023-10-09T02:34:45;31.00;;;19.47;;
14858;SDS011;7521;51.700;6.874;2023-10-09T02:37:51;36.00;;;21.90;;
14858;SDS011;7521;51.700;6.874;2023-10-09T02:40:58;32.87;;;20.67;;
14858;SDS011;7521;51.700;6.874;2023-10-09T02:44:09;31.27;;;19.80;;
14858;SDS011;7521;51.700;6.874;2023-10-09T02:47:20;32.93;;;20.60;;
14858;SDS011;7521;51.700;6.874;2023-10-09T02:50:29;32.43;;;19.97;;
14858;SDS011;7521;51.700;6.874;2023-10-09T02:53:35;31.30;;;18.90;;
14858;SDS011;7521;51.700;6.874;2023-10-09T02:56:40;32.23;;;20.07;;
14858;SDS011;7521;51.700;6.874;2023-10-09T02:59:48;27.87;;;18.90;;
14858;SDS011;7521;51.700;6.874;2023-10-09T03:02:56;32.53;;;20.57;;
14858;SDS011;7521;51.700;6.874;2023-10-09T03:06:03;34.77;;;20.37;;
14858;SDS011;7521;51.700;6.874;2023-10-09T03:09:16;29.30;;;20.03;;
14858;SDS011;7521;51.700;6.874;2023-10-09T03:12:21;33.17;;;19.37;;
14858;SDS011;7521;51.700;6.874;2023-10-09T03:15:31;29.50;;;18.07;;
14858;SDS011;7521;51.700;6.874;2023-10-09T03:18:40;32.20;;;20.30;;
14858;SDS011;7521;51.700;6.874;2023-10-09T03:21:46;28.97;;;19.47;;
14858;SDS011;7521;51.700;6.874;2023-10-09T03:24:52;29.73;;;18.75;;
14858;SDS011;7521;51.700;6.874;2023-10-09T03:27:58;31.13;;;19.37;;
14858;SDS011;7521;51.700;6.874;2023-10-09T03:31:03;30.53;;;19.37;;
14858;SDS011;7521;51.700;6.874;2023-10-09T03:34:12;28.67;;;18.80;;
14858;SDS011;7521;51.700;6.874;2023-10-09T03:37:17;24.67;;;18.15;;
14858;SDS011;7521;51.700;6.874;2023-10-09T03:40:45;28.10;;;17.20;;
14858;SDS011;7521;51.700;6.874;2023-10-09T03:43:53;28.90;;;18.80;;
14858;SDS011;7521;51.700;6.874;2023-10-09T03:46:59;25.70;;;18.27;;
14858;SDS011;7521;51.700;6.874;2023-10-09T03:50:04;23.35;;;17.48;;
14858;SDS011;7521;51.700;6.874;2023-10-09T03:53:26;24.30;;;17.60;;
14858;SDS011;7521;51.700;6.874;2023-10-09T03:56:31;26.35;;;18.08;;
14858;SDS011;7521;51.700;6.874;2023-10-09T03:59:37;25.57;;;17.97;;
14858;SDS011;7521;51.700;6.874;2023-10-09T04:02:42;28.60;;;18.00;;
14858;SDS011;7521;51.700;6.874;2023-10-09T04:05:48;26.10;;;18.20;;
14858;SDS011;7521;51.700;6.874;2023-10-09T04:08:56;22.30;;;16.40;;
14858;SDS011;7521;51.700;6.874;2023-10-09T04:12:04;27.63;;;16.97;;
14858;SDS011;7521;51.700;6.874;2023-10-09T04:15:15;28.87;;;18.33;;
14858;SDS011;7521;51.700;6.874;2023-10-09T04:18:20;24.27;;;16.87;;
14858;SDS011;7521;51.700;6.874;2023-10-09T04:21:33;22.67;;;16.83;;
14858;SDS011;7521;51.700;6.874;2023-10-09T04:24:41;23.27;;;15.67;;
14858;SDS011;7521;51.700;6.874;2023-10-09T04:27:46;22.13;;;16.20;;
14858;SDS011;7521;51.700;6.874;2023-10-09T04:30:51;24.07;;;16.20;;
14858;SDS011;7521;51.700;6.874;2023-10-09T04:34:00;19.77;;;15.37;;
14858;SDS011;7521;51.700;6.874;2023-10-09T04:37:34;24.67;;;16.37;;
14858;SDS011;7521;51.700;6.874;2023-10-09T04:40:43;23.57;;;16.43;;
14858;SDS011;7521;51.700;6.874;2023-10-09T04:43:48;19.83;;;14.57;;
14858;SDS011;7521;51.700;6.874;2023-10-09T04:46:55;21.47;;;15.40;;
14858;SDS011;7521;51.700;6.874;2023-10-09T04:50:15;24.03;;;14.80;;
14858;SDS011;7521;51.700;6.874;2023-10-09T04:53:23;21.87;;;13.87;;
14858;SDS011;7521;51.700;6.874;2023-10-09T04:56:28;20.65;;;14.73;;
14858;SDS011;7521;51.700;6.874;2023-10-09T04:59:37;20.40;;;14.70;;
14858;SDS011;7521;51.700;6.874;2023-10-09T05:02:54;21.27;;;16.00;;
14858;SDS011;7521;51.700;6.874;2023-10-09T05:06:02;20.93;;;15.57;;
14858;SDS011;7521;51.700;6.874;2023-10-09T05:09:25;22.77;;;15.73;;
14858;SDS011;7521;51.700;6.874;2023-10-09T05:12:31;19.83;;;14.73;;
14858;SDS011;7521;51.700;6.874;2023-10-09T05:15:37;22.95;;;15.07;;
14858;SDS011;7521;51.700;6.874;2023-10-09T05:18:44;20.47;;;14.30;;
14858;SDS011;7521;51.700;6.874;2023-10-09T05:21:50;19.00;;;13.93;;
14858;SDS011;7521;51.700;6.874;2023-10-09T05:24:57;17.93;;;13.30;;
14858;SDS011;7521;51.700;6.874;2023-10-09T05:28:03;20.33;;;13.57;;
14858;SDS011;7521;51.700;6.874;2023-10-09T05:31:28;22.43;;;14.60;;
14858;SDS011;7521;51.700;6.874;2023-10-09T05:34:52;20.63;;;14.07;;
14858;SDS011;7521;51.700;6.874;2023-10-09T05:38:07;21.90;;;15.10;;
14858;SDS011;7521;51.700;6.874;2023-10-09T05:41:20;21.10;;;14.67;;
14858;SDS011;7521;51.700;6.874;2023-10-09T05:44:52;21.57;;;15.07;;
14858;SDS011;7521;51.700;6.874;2023-10-09T05:48:00;24.43;;;15.13;;
14858;SDS011;7521;51.700;6.874;2023-10-09T05:51:31;18.27;;;14.07;;
14858;SDS011;7521;51.700;6.874;2023-10-09T05:54:49;22.50;;;14.63;;
14858;SDS011;7521;51.700;6.874;2023-10-09T05:58:13;19.40;;;13.47;;
14858;SDS011;7521;51.700;6.874;2023-10-09T06:01:24;20.00;;;14.67;;
14858;SDS011;7521;51.700;6.874;2023-10-09T06:04:48;21.93;;;14.47;;
14858;SDS011;7521;51.700;6.874;2023-10-09T06:07:59;24.27;;;14.67;;
14858;SDS011;7521;51.700;6.874;2023-10-09T06:11:12;21.30;;;14.20;;
14858;SDS011;7521;51.700;6.874;2023-10-09T06:14:36;23.57;;;13.53;;
14858;SDS011;7521;51.700;6.874;2023-10-09T06:17:41;20.27;;;13.65;;
14858;SDS011;7521;51.700;6.874;2023-10-09T06:20:55;20.20;;;14.00;;
14858;SDS011;7521;51.700;6.874;2023-10-09T06:24:35;20.43;;;13.50;;
14858;SDS011;7521;51.700;6.874;2023-10-09T06:27:46;20.03;;;14.70;;
14858;SDS011;7521;51.700;6.874;2023-10-09T06:30:54;20.63;;;14.90;;
14858;SDS011;7521;51.700;6.874;2023-10-09T06:34:00;20.55;;;14.98;;
14858;SDS011;7521;51.700;6.874;2023-10-09T06:37:20;20.83;;;14.57;;
14858;SDS011;7521;51.700;6.874;2023-10-09T06:40:29;18.40;;;13.70;;
14858;SDS011;7521;51.700;6.874;2023-10-09T06:43:52;21.53;;;14.27;;
14858;SDS011;7521;51.700;6.874;2023-10-09T06:46:58;22.43;;;15.73;;
14858;SDS011;7521;51.700;6.874;2023-10-09T06:50:12;26.70;;;13.60;;
14858;SDS011;7521;51.700;6.874;2023-10-09T06:53:27;17.63;;;13.50;;
14858;SDS011;7521;51.700;6.874;2023-10-09T06:56:51;22.37;;;14.67;;
14858;SDS011;7521;51.700;6.874;2023-10-09T06:59:59;22.70;;;14.20;;
14858;SDS011;7521;51.700;6.874;2023-10-09T07:03:33;24.50;;;14.17;;
14858;SDS011;7521;51.700;6.874;2023-10-09T07:06:38;26.38;;;15.50;;
14858;SDS011;7521;51.700;6.874;2023-10-09T07:09:43;23.88;;;15.80;;
14858;SDS011;7521;51.700;6.874;2023-10-09T07:13:08;18.73;;;14.87;;
14858;SDS011;7521;51.700;6.874;2023-10-09T07:16:16;20.33;;;14.27;;
14858;SDS011;7521;51.700;6.874;2023-10-09T07:19:33;22.60;;;14.20;;
14858;SDS011;7521;51.700;6.874;2023-10-09T07:22:39;20.97;;;14.80;;
14858;SDS011;7521;51.700;6.874;2023-10-09T07:26:04;20.47;;;14.30;;
14858;SDS011;7521;51.700;6.874;2023-10-09T07:29:23;20.53;;;14.47;;
14858;SDS011;7521;51.700;6.874;2023-10-09T07:32:28;20.47;;;14.87;;
14858;SDS011;7521;51.700;6.874;2023-10-09T07:35:33;27.15;;;15.52;;
14858;SDS011;7521;51.700;6.874;2023-10-09T07:38:48;21.40;;;13.83;;
14858;SDS011;7521;51.700;6.874;2023-10-09T07:42:01;19.17;;;13.90;;
14858;SDS011;7521;51.700;6.874;2023-10-09T07:45:19;20.57;;;14.33;;
14858;SDS011;7521;51.700;6.874;2023-10-09T07:48:25;21.30;;;16.10;;
14858;SDS011;7521;51.700;6.874;2023-10-09T07:51:43;24.90;;;14.70;;
14858;SDS011;7521;51.700;6.874;2023-10-09T07:54:49;17.63;;;13.50;;
14858;SDS011;7521;51.700;6.874;2023-10-09T07:58:06;21.53;;;15.07;;
14858;SDS011;7521;51.700;6.874;2023-10-09T08:01:16;23.80;;;16.27;;
14858;SDS011;7521;51.700;6.874;2023-10-09T08:04:27;22.13;;;15.17;;
14858;SDS011;7521;51.700;6.874;2023-10-09T08:07:50;26.70;;;16.50;;
14858;SDS011;7521;51.700;6.874;2023-10-09T08:11:23;21.30;;;15.13;;
14858;SDS011;7521;51.700;6.874;2023-10-09T08:14:47;25.60;;;19.47;;
14858;SDS011;7521;51.700;6.874;2023-10-09T08:17:57;21.63;;;16.07;;
14858;SDS011;7521;51.700;6.874;2023-10-09T08:21:08;19.70;;;15.33;;
14858;SDS011;7521;51.700;6.874;2023-10-09T08:24:16;21.97;;;14.93;;
14858;SDS011;7521;51.700;6.874;2023-10-09T08:27:45;35.07;;;23.33;;
14858;SDS011;7521;51.700;6.874;2023-10-09T08:30:59;24.17;;;15.90;;
14858;SDS011;7521;51.700;6.874;2023-10-09T08:34:08;22.77;;;16.93;;
14858;SDS011;7521;51.700;6.874;2023-10-09T08:37:14;22.23;;;16.50;;
14858;SDS011;7521;51.700;6.874;2023-10-09T08:40:20;24.35;;;16.42;;
14858;SDS011;7521;51.700;6.874;2023-10-09T08:43:25;21.33;;;15.67;;
14858;SDS011;7521;51.700;6.874;2023-10-09T08:46:30;21.80;;;15.65;;
14858;SDS011;7521;51.700;6.874;2023-10-09T08:49:35;22.43;;;15.47;;
14858;SDS011;7521;51.700;6.874;2023-10-09T08:52:42;27.43;;;16.53;;
14858;SDS011;7521;51.700;6.874;2023-10-09T08:55:47;22.63;;;15.18;;
14858;SDS011;7521;51.700;6.874;2023-10-09T08:58:58;22.77;;;15.93;;
14858;SDS011;7521;51.700;6.874;2023-10-09T09:05:58;21.43;;;15.17;;
14858;SDS011;7521;51.700;6.874;2023-10-09T09:09:26;21.20;;;15.73;;
14858;SDS011;7521;51.700;6.874;2023-10-09T09:12:39;21.67;;;15.13;;
14858;SDS011;7521;51.700;6.874;2023-10-09T09:15:47;21.73;;;14.37;;
14858;SDS011;7521;51.700;6.874;2023-10-09T09:26:18;21.77;;;14.23;;
14858;SDS011;7521;51.700;6.874;2023-10-09T09:32:42;20.90;;;14.77;;
14858;SDS011;7521;51.700;6.874;2023-10-09T09:39:38;20.90;;;14.90;;
14858;SDS011;7521;51.700;6.874;2023-10-09T09:42:43;21.20;;;14.88;;
14858;SDS011;7521;51.700;6.874;2023-10-09T09:45:53;21.40;;;15.53;;
14858;SDS011;7521;51.700;6.874;2023-10-09T09:49:02;27.53;;;16.43;;
14858;SDS011;7521;51.700;6.874;2023-10-09T09:52:08;20.67;;;14.33;;
14858;SDS011;7521;51.700;6.874;2023-10-09T09:55:15;22.17;;;16.13;;
14858;SDS011;7521;51.700;6.874;2023-10-09T09:58:25;23.63;;;14.63;;
14858;SDS011;7521;51.700;6.874;2023-10-09T10:01:37;21.23;;;15.43;;
14858;SDS011;7521;51.700;6.874;2023-10-09T10:04:45;20.27;;;15.03;;
14858;SDS011;7521;51.700;6.874;2023-10-09T10:07:55;19.53;;;14.67;;
14858;SDS011;7521;51.700;6.874;2023-10-09T10:11:00;22.47;;;15.57;;
14858;SDS011;7521;51.700;6.874;2023-10-09T10:14:19;22.57;;;15.13;;
14858;SDS011;7521;51.700;6.874;2023-10-09T10:18:06;24.27;;;16.40;;
14858;SDS011;7521;51.700;6.874;2023-10-09T10:27:33;22.37;;;16.00;;
14858;SDS011;7521;51.700;6.874;2023-10-09T10:30:49;27.63;;;19.47;;
14858;SDS011;7521;51.700;6.874;2023-10-09T10:37:04;22.73;;;14.93;;
14858;SDS011;7521;51.700;6.874;2023-10-09T10:40:12;20.30;;;14.40;;
14858;SDS011;7521;51.700;6.874;2023-10-09T10:43:40;21.33;;;14.43;;
14858;SDS011;7521;51.700;6.874;2023-10-09T10:46:57;20.57;;;15.37;;
14858;SDS011;7521;51.700;6.874;2023-10-09T10:50:03;23.83;;;15.07;;
14858;SDS011;7521;51.700;6.874;2023-10-09T10:53:27;24.97;;;15.13;;
14858;SDS011;7521;51.700;6.874;2023-10-09T10:56:39;21.13;;;15.37;;
14858;SDS011;7521;51.700;6.874;2023-10-09T10:59:56;20.53;;;15.17;;
14858;SDS011;7521;51.700;6.874;2023-10-09T11:03:20;24.20;;;16.13;;
14858;SDS011;7521;51.700;6.874;2023-10-09T11:06:34;22.87;;;15.23;;
14858;SDS011;7521;51.700;6.874;2023-10-09T11:09:46;33.30;;;14.43;;
14858;SDS011;7521;51.700;6.874;2023-10-09T11:13:04;22.83;;;14.73;;
14858;SDS011;7521;51.700;6.874;2023-10-09T11:16:13;23.67;;;16.33;;
14858;SDS011;7521;51.700;6.874;2023-10-09T11:19:20;23.67;;;15.37;;
14858;SDS011;7521;51.700;6.874;2023-10-09T11:22:40;24.17;;;15.83;;
14858;SDS011;7521;51.700;6.874;2023-10-09T11:25:55;25.03;;;15.43;;
14858;SDS011;7521;51.700;6.874;2023-10-09T11:29:13;22.30;;;16.40;;
14858;SDS011;7521;51.700;6.874;2023-10-09T11:32:28;21.50;;;15.63;;
14858;SDS011;7521;51.700;6.874;2023-10-09T11:35:37;21.77;;;16.33;;
14858;SDS011;7521;51.700;6.874;2023-10-09T11:38:42;18.85;;;14.32;;
14858;SDS011;7521;51.700;6.874;2023-10-09T11:41:50;22.73;;;15.37;;
14858;SDS011;7521;51.700;6.874;2023-10-09T11:45:00;23.67;;;15.67;;
14858;SDS011;7521;51.700;6.874;2023-10-09T11:48:16;28.40;;;15.10;;
14858;SDS011;7521;51.700;6.874;2023-10-09T11:51:26;22.80;;;15.00;;
14858;SDS011;7521;51.700;6.874;2023-10-09T11:54:31;20.58;;;14.80;;
14858;SDS011;7521;51.700;6.874;2023-10-09T11:57:38;23.00;;;15.17;;
14858;SDS011;7521;51.700;6.874;2023-10-09T12:00:43;23.83;;;15.47;;
14858;SDS011;7521;51.700;6.874;2023-10-09T12:03:51;23.13;;;14.60;;
14858;SDS011;7521;51.700;6.874;2023-10-09T12:06:57;24.60;;;15.17;;
14858;SDS011;7521;51.700;6.874;2023-10-09T12:10:11;28.30;;;17.17;;
14858;SDS011;7521;51.700;6.874;2023-10-09T12:13:19;19.73;;;15.87;;
14858;SDS011;7521;51.700;6.874;2023-10-09T12:16:26;23.27;;;15.80;;
14858;SDS011;7521;51.700;6.874;2023-10-09T12:19:37;23.97;;;16.33;;
14858;SDS011;7521;51.700;6.874;2023-10-09T12:22:42;23.23;;;15.30;;
14858;SDS011;7521;51.700;6.874;2023-10-09T12:25:48;24.77;;;15.60;;
14858;SDS011;7521;51.700;6.874;2023-10-09T12:28:53;22.83;;;16.27;;
14858;SDS011;7521;51.700;6.874;2023-10-09T12:31:58;24.35;;;15.95;;
14858;SDS011;7521;51.700;6.874;2023-10-09T12:35:04;21.70;;;17.37;;
14858;SDS011;7521;51.700;6.874;2023-10-09T12:38:22;26.07;;;16.03;;
14858;SDS011;7521;51.700;6.874;2023-10-09T12:41:28;22.00;;;16.33;;
14858;SDS011;7521;51.700;6.874;2023-10-09T12:44:38;22.80;;;15.43;;
14858;SDS011;7521;51.700;6.874;2023-10-09T12:47:47;22.13;;;14.27;;
14858;SDS011;7521;51.700;6.874;2023-10-09T12:50:52;23.10;;;14.73;;
14858;SDS011;7521;51.700;6.874;2023-10-09T12:53:58;19.60;;;15.17;;
14858;SDS011;7521;51.700;6.874;2023-10-09T12:57:06;24.43;;;14.63;;
14858;SDS011;7521;51.700;6.874;2023-10-09T13:00:18;22.03;;;14.47;;
14858;SDS011;7521;51.700;6.874;2023-10-09T13:03:30;18.03;;;13.43;;
14858;SDS011;7521;51.700;6.874;2023-10-09T13:06:38;21.07;;;14.63;;
14858;SDS011;7521;51.700;6.874;2023-10-09T13:09:48;24.60;;;15.33;;
14858;SDS011;7521;51.700;6.874;2023-10-09T13:13:13;19.67;;;15.27;;
14858;SDS011;7521;51.700;6.874;2023-10-09T13:16:19;25.83;;;15.33;;
14858;SDS011;7521;51.700;6.874;2023-10-09T13:19:28;19.07;;;13.97;;
14858;SDS011;7521;51.700;6.874;2023-10-09T13:22:33;18.13;;;15.17;;
14858;SDS011;7521;51.700;6.874;2023-10-09T13:25:38;23.63;;;14.40;;
14858;SDS011;7521;51.700;6.874;2023-10-09T13:28:48;25.40;;;15.40;;
14858;SDS011;7521;51.700;6.874;2023-10-09T13:31:53;26.50;;;14.70;;
14858;SDS011;7521;51.700;6.874;2023-10-09T13:35:07;20.00;;;14.00;;
14858;SDS011;7521;51.700;6.874;2023-10-09T13:38:12;19.57;;;14.00;;
14858;SDS011;7521;51.700;6.874;2023-10-09T13:41:19;20.67;;;14.40;;
14858;SDS011;7521;51.700;6.874;2023-10-09T13:44:25;22.43;;;13.07;;
14858;SDS011;7521;51.700;6.874;2023-10-09T13:47:33;18.43;;;13.63;;
14858;SDS011;7521;51.700;6.874;2023-10-09T13:50:41;19.73;;;13.87;;
14858;SDS011;7521;51.700;6.874;2023-10-09T13:53:47;21.90;;;14.33;;
14858;SDS011;7521;51.700;6.874;2023-10-09T13:56:53;25.80;;;14.80;;
14858;SDS011;7521;51.700;6.874;2023-10-09T13:59:58;21.33;;;14.05;;
14858;SDS011;7521;51.700;6.874;2023-10-09T14:03:05;18.67;;;13.63;;
14858;SDS011;7521;51.700;6.874;2023-10-09T14:06:17;19.60;;;12.57;;
14858;SDS011;7521;51.700;6.874;2023-10-09T14:09:25;29.63;;;15.03;;
14858;SDS011;7521;51.700;6.874;2023-10-09T14:12:35;22.93;;;12.93;;
14858;SDS011;7521;51.700;6.874;2023-10-09T14:15:44;21.10;;;13.40;;
14858;SDS011;7521;51.700;6.874;2023-10-09T14:18:51;21.77;;;13.40;;
14858;SDS011;7521;51.700;6.874;2023-10-09T14:22:02;17.77;;;12.57;;
14858;SDS011;7521;51.700;6.874;2023-10-09T14:25:10;23.03;;;13.07;;
14858;SDS011;7521;51.700;6.874;2023-10-09T14:28:20;21.23;;;13.30;;
14858;SDS011;7521;51.700;6.874;2023-10-09T14:31:25;24.70;;;11.90;;
14858;SDS011;7521;51.700;6.874;2023-10-09T14:34:33;22.60;;;11.80;;
14858;SDS011;7521;51.700;6.874;2023-10-09T14:37:41;16.07;;;11.13;;
14858;SDS011;7521;51.700;6.874;2023-10-09T14:40:46;19.77;;;11.73;;
14858;SDS011;7521;51.700;6.874;2023-10-09T14:43:53;18.63;;;11.77;;
14858;SDS011;7521;51.700;6.874;2023-10-09T14:46:58;21.47;;;11.03;;
14858;SDS011;7521;51.700;6.874;2023-10-09T14:50:03;18.07;;;11.30;;
14858;SDS011;7521;51.700;6.874;2023-10-09T14:53:13;16.40;;;11.43;;
14858;SDS011;7521;51.700;6.874;2023-10-09T14:56:20;18.50;;;10.63;;
14858;SDS011;7521;51.700;6.874;2023-10-09T14:59:33;18.33;;;10.40;;
14858;SDS011;7521;51.700;6.874;2023-10-09T15:02:47;20.60;;;11.60;;
14858;SDS011;7521;51.700;6.874;2023-10-09T15:06:02;17.50;;;9.70;;
14858;SDS011;7521;51.700;6.874;2023-10-09T15:16:47;14.30;;;9.00;;
14858;SDS011;7521;51.700;6.874;2023-10-09T15:20:00;18.77;;;8.60;;
14858;SDS011;7521;51.700;6.874;2023-10-09T15:23:18;15.33;;;9.27;;
14858;SDS011;7521;51.700;6.874;2023-10-09T15:26:28;16.10;;;9.67;;
14858;SDS011;7521;51.700;6.874;2023-10-09T15:36:37;16.73;;;9.53;;
14858;SDS011;7521;51.700;6.874;2023-10-09T15:39:49;13.77;;;9.53;;
14858;SDS011;7521;51.700;6.874;2023-10-09T15:42:55;17.60;;;10.17;;
14858;SDS011;7521;51.700;6.874;2023-10-09T15:49:28;18.07;;;10.57;;
14858;SDS011;7521;51.700;6.874;2023-10-09T15:52:58;14.97;;;9.00;;
14858;SDS011;7521;51.700;6.874;2023-10-09T15:56:15;15.57;;;8.63;;
14858;SDS011;7521;51.700;6.874;2023-10-09T16:03:09;14.10;;;8.73;;
14858;SDS011;7521;51.700;6.874;2023-10-09T16:06:18;13.33;;;8.27;;
14858;SDS011;7521;51.700;6.874;2023-10-09T16:09:45;16.53;;;9.40;;
14858;SDS011;7521;51.700;6.874;2023-10-09T16:13:17;18.07;;;9.67;;
14858;SDS011;7521;51.700;6.874;2023-10-09T16:19:54;16.33;;;9.70;;
14858;SDS011;7521;51.700;6.874;2023-10-09T16:23:04;13.47;;;9.03;;
14858;SDS011;7521;51.700;6.874;2023-10-09T16:26:13;15.70;;;9.23;;
14858;SDS011;7521;51.700;6.874;2023-10-09T16:29:41;14.23;;;8.27;;
14858;SDS011;7521;51.700;6.874;2023-10-09T16:40:37;16.17;;;9.77;;
14858;SDS011;7521;51.700;6.874;2023-10-09T16:43:56;16.27;;;9.10;;
14858;SDS011;7521;51.700;6.874;2023-10-09T16:50:54;18.30;;;10.57;;
14858;SDS011;7521;51.700;6.874;2023-10-09T16:58:35;10.18;;;8.10;;
14858;SDS011;7521;51.700;6.874;2023-10-09T17:02:01;19.67;;;10.50;;
14858;SDS011;7521;51.700;6.874;2023-10-09T17:05:13;16.17;;;10.03;;
14858;SDS011;7521;51.700;6.874;2023-10-09T17:08:41;13.53;;;8.60;;
14858;SDS011;7521;51.700;6.874;2023-10-09T17:12:03;17.80;;;9.60;;
14858;SDS011;7521;51.700;6.874;2023-10-09T17:15:15;16.30;;;9.40;;
14858;SDS011;7521;51.700;6.874;2023-10-09T17:19:08;14.23;;;10.30;;
14858;SDS011;7521;51.700;6.874;2023-10-09T17:22:27;14.77;;;8.77;;
14858;SDS011;7521;51.700;6.874;2023-10-09T17:28:54;14.30;;;10.10;;
14858;SDS011;7521;51.700;6.874;2023-10-09T17:32:08;17.10;;;10.23;;
14858;SDS011;7521;51.700;6.874;2023-10-09T17:38:33;18.67;;;10.43;;
14858;SDS011;7521;51.700;6.874;2023-10-09T17:41:38;16.37;;;9.47;;
14858;SDS011;7521;51.700;6.874;2023-10-09T17:44:43;13.00;;;9.53;;
14858;SDS011;7521;51.700;6.874;2023-10-09T17:47:48;16.20;;;9.77;;
14858;SDS011;7521;51.700;6.874;2023-10-09T17:50:55;17.30;;;9.77;;
14858;SDS011;7521;51.700;6.874;2023-10-09T17:54:00;14.37;;;9.70;;
14858;SDS011;7521;51.700;6.874;2023-10-09T17:57:05;14.35;;;8.77;;
14858;SDS011;7521;51.700;6.874;2023-10-09T18:00:11;18.15;;;9.15;;
14858;SDS011;7521;51.700;6.874;2023-10-09T18:03:27;19.87;;;9.83;;
14858;SDS011;7521;51.700;6.874;2023-10-09T18:06:33;19.13;;;9.33;;
14858;SDS011;7521;51.700;6.874;2023-10-09T18:09:40;14.87;;;8.40;;
14858;SDS011;7521;51.700;6.874;2023-10-09T18:12:45;18.83;;;9.57;;
14858;SDS011;7521;51.700;6.874;2023-10-09T18:15:51;14.35;;;8.07;;
14858;SDS011;7521;51.700;6.874;2023-10-09T18:18:56;15.07;;;8.30;;
14858;SDS011;7521;51.700;6.874;2023-10-09T18:22:01;14.85;;;8.30;;
14858;SDS011;7521;51.700;6.874;2023-10-09T18:25:07;16.43;;;8.23;;
14858;SDS011;7521;51.700;6.874;2023-10-09T18:28:14;15.00;;;8.03;;
14858;SDS011;7521;51.700;6.874;2023-10-09T18:31:19;14.30;;;7.85;;
14858;SDS011;7521;51.700;6.874;2023-10-09T18:34:25;11.23;;;7.73;;
14858;SDS011;7521;51.700;6.874;2023-10-09T18:37:34;14.70;;;7.97;;
14858;SDS011;7521;51.700;6.874;2023-10-09T18:40:39;14.85;;;8.18;;
14858;SDS011;7521;51.700;6.874;2023-10-09T18:43:44;15.33;;;7.80;;
14858;SDS011;7521;51.700;6.874;2023-10-09T18:46:49;10.93;;;6.80;;
14858;SDS011;7521;51.700;6.874;2023-10-09T18:49:55;13.93;;;7.25;;
14858;SDS011;7521;51.700;6.874;2023-10-09T18:53:00;12.43;;;7.73;;
14858;SDS011;7521;51.700;6.874;2023-10-09T18:56:13;14.53;;;7.63;;
14858;SDS011;7521;51.700;6.874;2023-10-09T18:59:19;11.90;;;7.63;;
14858;SDS011;7521;51.700;6.874;2023-10-09T19:02:28;16.50;;;8.00;;
14858;SDS011;7521;51.700;6.874;2023-10-09T19:05:33;13.80;;;7.87;;
14858;SDS011;7521;51.700;6.874;2023-10-09T19:08:38;13.95;;;7.40;;
14858;SDS011;7521;51.700;6.874;2023-10-09T19:11:43;12.93;;;7.20;;
14858;SDS011;7521;51.700;6.874;2023-10-09T19:14:48;15.60;;;7.30;;
14858;SDS011;7521;51.700;6.874;2023-10-09T19:17:54;10.97;;;6.97;;
14858;SDS011;7521;51.700;6.874;2023-10-09T19:21:02;11.30;;;8.07;;
14858;SDS011;7521;51.700;6.874;2023-10-09T19:24:09;17.20;;;9.03;;
14858;SDS011;7521;51.700;6.874;2023-10-09T19:27:16;14.37;;;8.03;;
14858;SDS011;7521;51.700;6.874;2023-10-09T19:30:23;12.47;;;7.77;;
14858;SDS011;7521;51.700;6.874;2023-10-09T19:33:29;17.70;;;9.10;;
14858;SDS011;7521;51.700;6.874;2023-10-09T19:36:34;12.05;;;7.95;;
14858;SDS011;7521;51.700;6.874;2023-10-09T19:39:42;14.10;;;8.80;;
14858;SDS011;7521;51.700;6.874;2023-10-09T19:42:47;14.13;;;9.20;;
14858;SDS011;7521;51.700;6.874;2023-10-09T19:46:00;12.57;;;8.37;;
14858;SDS011;7521;51.700;6.874;2023-10-09T19:49:05;13.60;;;9.00;;
14858;SDS011;7521;51.700;6.874;2023-10-09T19:52:11;17.80;;;9.77;;
14858;SDS011;7521;51.700;6.874;2023-10-09T19:55:16;15.87;;;9.43;;
14858;SDS011;7521;51.700;6.874;2023-10-09T19:58:26;14.43;;;8.70;;
14858;SDS011;7521;51.700;6.874;2023-10-09T20:01:31;16.02;;;9.38;;
14858;SDS011;7521;51.700;6.874;2023-10-09T20:04:36;14.95;;;9.18;;
14858;SDS011;7521;51.700;6.874;2023-10-09T20:07:41;16.27;;;9.97;;
14858;SDS011;7521;51.700;6.874;2023-10-09T20:10:47;16.52;;;10.23;;
14858;SDS011;7521;51.700;6.874;2023-10-09T20:13:54;16.03;;;9.33;;